createdAt,value
2022-09-04T00:01:32.225Z,91.88
2022-09-04T00:04:03.498Z,92.41
2022-09-04T00:06:32.384Z,93.60
2022-09-04T00:09:05.956Z,92.64
2022-09-04T00:11:38.641Z,91.90
2022-09-04T00:14:07.309Z,91.98
2022-09-04T00:16:37.088Z,92.76
2022-09-04T00:19:09.094Z,92.03
2022-09-04T00:21:37.637Z,92.05
2022-09-04T00:24:06.502Z,90.87
2022-09-04T00:26:42.647Z,91.41
2022-09-04T00:29:11.825Z,90.10
2022-09-04T00:31:42.652Z,89.99
2022-09-04T00:34:18.823Z,90.28
2022-09-04T00:36:50.153Z,89.33
2022-09-04T00:39:19.991Z,90.28
2022-09-04T00:41:52.890Z,90.70
2022-09-04T00:44:39.026Z,91.27
2022-09-04T00:47:09.991Z,91.23
2022-09-04T00:49:57.955Z,89.87
2022-09-04T00:52:36.633Z,90.27
2022-09-04T00:55:09.337Z,91.17
2022-09-04T00:57:57.727Z,91.01
2022-09-04T01:00:30.308Z,89.57
2022-09-04T01:03:25.777Z,88.73
2022-09-04T01:06:05.367Z,88.78
2022-09-04T01:08:41.193Z,89.80
2022-09-04T01:11:10.986Z,90.30
2022-09-04T01:13:41.522Z,91.84
2022-09-04T01:16:11.285Z,93.54
2022-09-04T01:18:42.191Z,92.41
2022-09-04T01:21:18.085Z,92.92
2022-09-04T01:24:06.401Z,92.77
2022-09-04T01:26:42.198Z,91.22
2022-09-04T01:29:14.698Z,90.69
2022-09-04T01:31:44.989Z,89.61
2022-09-04T01:34:22.078Z,90.11
2022-09-04T01:36:50.816Z,89.87
2022-09-04T01:39:22.928Z,90.59
2022-09-04T01:41:54.387Z,90.42
2022-09-04T01:44:22.769Z,89.79
2022-09-04T01:46:56.357Z,88.94
2022-09-04T01:49:26.923Z,88.06
2022-09-04T01:51:57.463Z,88.78
2022-09-04T01:54:27.777Z,88.33
2022-09-04T01:56:58.853Z,90.39
2022-09-04T01:59:28.073Z,91.23
2022-09-04T02:01:58.554Z,91.75
2022-09-04T02:04:28.833Z,92.12
2022-09-04T02:06:58.731Z,92.97
2022-09-04T02:09:32.757Z,93.60
2022-09-04T02:12:08.786Z,92.51
2022-09-04T02:14:37.484Z,92.61
2022-09-04T02:17:18.436Z,92.72
2022-09-04T02:19:52.412Z,92.65
2022-09-04T02:22:25.130Z,89.94
2022-09-04T02:24:54.506Z,90.60
2022-09-04T02:27:26.594Z,89.20
2022-09-04T02:30:04.567Z,87.97
2022-09-04T02:32:37.803Z,89.38
2022-09-04T02:35:09.907Z,90.16
2022-09-04T02:37:42.373Z,90.30
2022-09-04T02:40:12.057Z,89.28
2022-09-04T02:42:42.768Z,88.40
2022-09-04T02:45:13.936Z,88.56
2022-09-04T02:47:46.048Z,89.61
2022-09-04T02:50:16.174Z,90.25
2022-09-04T02:52:48.038Z,90.33
2022-09-04T02:55:19.479Z,89.47
2022-09-04T02:57:55.272Z,89.75
2022-09-04T03:00:24.423Z,90.44
2022-09-04T03:02:56.064Z,89.11
2022-09-04T03:05:24.662Z,88.71
2022-09-04T03:07:57.722Z,89.55
2022-09-04T03:10:26.482Z,90.09
2022-09-04T03:13:00.939Z,90.40
2022-09-04T03:15:29.885Z,90.31
2022-09-04T03:17:59.952Z,89.05
2022-09-04T03:20:29.018Z,88.39
2022-09-04T03:22:58.800Z,89.08
2022-09-04T03:25:31.550Z,90.45
2022-09-04T03:28:03.479Z,89.77
2022-09-04T03:30:31.209Z,89.05
2022-09-04T03:33:02.991Z,88.47
2022-09-04T03:35:34.544Z,90.19
2022-09-04T03:38:05.458Z,88.99
2022-09-04T03:40:38.162Z,88.79
2022-09-04T03:43:21.566Z,88.81
2022-09-04T03:45:54.461Z,89.21
2022-09-04T03:48:26.526Z,88.17
2022-09-04T03:50:56.608Z,87.27
2022-09-04T03:53:30.281Z,87.44
2022-09-04T03:56:02.637Z,87.40
2022-09-04T03:58:38.263Z,85.82
2022-09-04T04:01:09.934Z,85.74
2022-09-04T04:03:40.956Z,86.75
2022-09-04T04:06:13.055Z,85.57
2022-09-04T04:09:02.225Z,85.97
2022-09-04T04:11:43.439Z,85.26
2022-09-04T04:14:16.290Z,86.24
2022-09-04T04:16:56.374Z,84.18
2022-09-04T04:19:34.389Z,83.94
2022-09-04T04:22:06.120Z,85.11
2022-09-04T04:24:40.786Z,85.15
2022-09-04T04:27:13.315Z,85.53
2022-09-04T04:29:49.659Z,87.66
2022-09-04T04:32:28.330Z,87.99
2022-09-04T04:35:05.528Z,87.73
2022-09-04T04:37:36.213Z,87.18
2022-09-04T04:40:08.100Z,86.83
2022-09-04T04:42:37.111Z,86.11
2022-09-04T04:45:38.515Z,86.88
2022-09-04T04:48:14.619Z,89.74
2022-09-04T04:50:44.126Z,88.09
2022-09-04T04:53:16.604Z,87.94
2022-09-04T04:55:50.496Z,86.28
2022-09-04T04:58:33.662Z,86.76
2022-09-04T05:01:05.318Z,87.83
2022-09-04T05:03:43.495Z,88.34
2022-09-04T05:06:13.177Z,86.91
2022-09-04T05:08:46.333Z,87.08
2022-09-04T05:11:16.713Z,86.46
2022-09-04T05:13:50.255Z,87.37
2022-09-04T05:16:22.239Z,86.27
2022-09-04T05:18:58.906Z,86.29
2022-09-04T05:21:41.698Z,84.69
2022-09-04T05:24:10.814Z,84.88
2022-09-04T05:26:40.594Z,85.58
2022-09-04T05:29:11.902Z,83.95
2022-09-04T05:31:42.112Z,84.16
2022-09-04T05:34:13.835Z,83.87
2022-09-04T05:36:48.355Z,83.68
2022-09-04T05:39:19.731Z,84.61
2022-09-04T05:41:54.605Z,84.97
2022-09-04T05:44:34.970Z,85.34
2022-09-04T05:47:06.501Z,86.83
2022-09-04T05:49:43.494Z,87.24
2022-09-04T05:52:20.189Z,86.10
2022-09-04T05:55:11.730Z,88.72
2022-09-04T05:57:42.752Z,88.12
2022-09-04T06:00:11.331Z,87.51
2022-09-04T06:02:57.812Z,88.15
2022-09-04T06:05:37.549Z,88.20
2022-09-04T06:08:10.321Z,86.43
2022-09-04T06:10:42.613Z,87.42
2022-09-04T06:13:19.173Z,87.91
2022-09-04T06:15:50.052Z,87.77
2022-09-04T06:18:28.093Z,87.95
2022-09-04T06:21:04.666Z,86.18
2022-09-04T06:23:59.114Z,85.66
2022-09-04T06:26:38.362Z,86.42
2022-09-04T06:29:13.717Z,86.38
2022-09-04T06:32:08.321Z,86.72
2022-09-04T06:34:43.865Z,86.49
2022-09-04T06:37:21.665Z,86.12
2022-09-04T06:39:52.690Z,85.41
2022-09-04T06:42:34.667Z,84.57
2022-09-04T06:45:07.640Z,84.05
2022-09-04T06:47:42.688Z,84.04
2022-09-04T06:50:14.632Z,82.35
2022-09-04T06:52:46.097Z,82.90
2022-09-04T06:55:15.159Z,83.21
2022-09-04T06:57:54.180Z,83.04
2022-09-04T07:00:23.657Z,84.11
2022-09-04T07:03:14.889Z,83.71
2022-09-04T07:05:44.289Z,82.46
2022-09-04T07:08:14.426Z,83.48
2022-09-04T07:10:46.510Z,86.05
2022-09-04T07:13:22.203Z,86.65
2022-09-04T07:16:02.455Z,87.06
2022-09-04T07:18:35.727Z,87.87
2022-09-04T07:21:05.310Z,84.91
2022-09-04T07:23:37.736Z,84.40
2022-09-04T07:26:08.574Z,84.73
2022-09-04T07:28:40.543Z,83.51
2022-09-04T07:31:09.635Z,83.39
2022-09-04T07:33:39.796Z,82.97
2022-09-04T07:36:10.140Z,82.62
2022-09-04T07:38:42.590Z,81.85
2022-09-04T07:41:17.734Z,81.12
2022-09-04T07:43:54.621Z,80.28
2022-09-04T07:46:23.934Z,79.95
2022-09-04T07:48:58.459Z,78.67
2022-09-04T07:51:31.626Z,79.66
2022-09-04T07:54:22.913Z,78.91
2022-09-04T07:57:05.992Z,80.20
2022-09-04T07:59:54.758Z,80.67
2022-09-04T08:02:24.678Z,78.55
2022-09-04T08:05:06.257Z,79.58
2022-09-04T08:07:55.100Z,76.53
2022-09-04T08:10:30.468Z,76.89
2022-09-04T08:13:00.716Z,76.01
2022-09-04T08:15:31.019Z,74.61
2022-09-04T08:18:08.938Z,74.87
2022-09-04T08:20:41.418Z,75.63
2022-09-04T08:23:13.898Z,74.72
2022-09-04T08:26:03.793Z,74.23
2022-09-04T08:28:46.297Z,73.08
2022-09-04T08:31:18.272Z,73.37
2022-09-04T08:33:51.261Z,74.36
2022-09-04T08:36:21.244Z,71.42
2022-09-04T08:38:56.528Z,70.13
2022-09-04T08:41:57.566Z,70.23
2022-09-04T08:44:46.557Z,67.98
2022-09-04T08:47:42.965Z,69.25
2022-09-04T08:50:17.561Z,69.15
2022-09-04T08:52:57.273Z,67.59
2022-09-04T08:55:31.497Z,66.53
2022-09-04T08:58:20.773Z,67.54
2022-09-04T09:00:57.162Z,68.96
2022-09-04T09:03:36.117Z,67.62
2022-09-04T09:06:33.881Z,66.60
2022-09-04T09:09:23.092Z,66.08
2022-09-04T09:12:05.602Z,65.69
2022-09-04T09:14:42.188Z,64.84
2022-09-04T09:17:14.768Z,65.09
2022-09-04T09:19:47.269Z,66.17
2022-09-04T09:22:24.278Z,66.30
2022-09-04T09:25:13.805Z,66.85
2022-09-04T09:28:13.666Z,65.56
2022-09-04T09:30:51.097Z,65.07
2022-09-04T09:33:39.997Z,65.96
2022-09-04T09:36:12.386Z,65.54
2022-09-04T09:39:14.741Z,64.84
2022-09-04T09:41:59.958Z,65.32
2022-09-04T09:44:31.519Z,63.22
2022-09-04T09:47:25.568Z,63.10
2022-09-04T09:50:08.433Z,62.32
2022-09-04T09:52:53.870Z,63.48
2022-09-04T09:55:25.749Z,64.57
2022-09-04T09:58:15.203Z,64.86
2022-09-04T10:00:46.474Z,63.92
2022-09-04T10:03:28.513Z,64.27
2022-09-04T10:06:09.721Z,62.84
2022-09-04T10:08:43.481Z,61.61
2022-09-04T10:11:24.607Z,63.62
2022-09-04T10:14:06.922Z,60.79
2022-09-04T10:16:46.110Z,60.09
2022-09-04T10:19:34.685Z,59.96
2022-09-04T10:22:21.070Z,61.56
2022-09-04T10:25:10.909Z,60.96
2022-09-04T10:28:10.295Z,62.86
2022-09-04T10:30:45.253Z,61.63
2022-09-04T10:33:18.956Z,62.44
2022-09-04T10:35:50.015Z,63.56
2022-09-04T10:38:26.351Z,63.37
2022-09-04T10:41:06.638Z,62.48
2022-09-04T10:43:45.500Z,63.48
2022-09-04T10:46:23.445Z,61.77
2022-09-04T10:49:15.992Z,63.56
2022-09-04T10:51:49.677Z,59.84
2022-09-04T10:54:36.386Z,58.92
2022-09-04T10:57:09.853Z,57.92
2022-09-04T10:59:49.228Z,58.06
2022-09-04T11:02:27.296Z,58.49
2022-09-04T11:05:04.005Z,59.43
2022-09-04T11:07:38.820Z,57.77
2022-09-04T11:10:17.957Z,57.57
2022-09-04T11:13:06.602Z,57.40
2022-09-04T11:15:41.756Z,60.77
2022-09-04T11:18:22.695Z,60.53
2022-09-04T11:21:18.750Z,60.93
2022-09-04T11:23:58.412Z,62.56
2022-09-04T11:26:47.341Z,60.76
2022-09-04T11:29:31.127Z,60.60
2022-09-04T11:32:19.052Z,59.82
2022-09-04T11:35:20.486Z,60.75
2022-09-04T11:38:05.861Z,59.58
2022-09-04T11:40:44.240Z,59.80
2022-09-04T11:43:19.010Z,59.12
2022-09-04T11:45:58.004Z,59.55
2022-09-04T11:48:46.579Z,58.50
2022-09-04T11:51:39.250Z,58.28
2022-09-04T11:54:23.571Z,56.00
2022-09-04T11:57:01.089Z,56.02
2022-09-04T11:59:44.731Z,56.16
2022-09-04T12:02:32.545Z,54.33
2022-09-04T12:05:05.964Z,54.79
2022-09-04T12:07:42.643Z,54.73
2022-09-04T12:10:24.017Z,53.38
2022-09-04T12:13:14.741Z,52.42
2022-09-04T12:16:07.686Z,51.82
2022-09-04T12:18:59.324Z,53.81
2022-09-04T12:21:36.175Z,51.64
2022-09-04T12:24:15.518Z,50.34
2022-09-04T12:26:55.110Z,50.94
2022-09-04T12:29:43.849Z,50.15
2022-09-04T12:32:17.728Z,50.49
2022-09-04T12:35:08.920Z,48.60
2022-09-04T12:37:49.876Z,48.29
2022-09-04T12:40:34.540Z,47.79
2022-09-04T12:43:06.892Z,45.98
2022-09-04T12:45:38.475Z,47.07
2022-09-04T12:48:13.899Z,46.38
2022-09-04T12:50:42.059Z,45.58
2022-09-04T12:53:14.029Z,47.58
2022-09-04T12:55:45.472Z,49.88
2022-09-04T12:58:17.863Z,49.67
2022-09-04T13:00:49.945Z,51.09
2022-09-04T13:03:21.166Z,51.75
2022-09-04T13:05:57.163Z,52.43
2022-09-04T13:08:28.067Z,54.70
2022-09-04T13:11:01.856Z,55.17
2022-09-04T13:13:33.897Z,54.39
2022-09-04T13:16:07.989Z,53.95
2022-09-04T13:18:41.173Z,51.97
2022-09-04T13:21:12.225Z,51.12
2022-09-04T13:23:49.039Z,50.55
2022-09-04T13:26:38.458Z,50.50
2022-09-04T13:29:12.266Z,50.75
2022-09-04T13:31:47.638Z,49.45
2022-09-04T13:34:18.676Z,48.57
2022-09-04T13:36:50.275Z,47.75
2022-09-04T13:39:23.635Z,47.84
2022-09-04T13:42:00.085Z,48.18
2022-09-04T13:44:41.211Z,49.02
2022-09-04T13:47:10.992Z,48.84
2022-09-04T13:49:40.346Z,50.39
2022-09-04T13:52:18.318Z,49.34
2022-09-04T13:54:47.434Z,49.87
2022-09-04T13:57:17.134Z,50.67
2022-09-04T13:59:46.212Z,50.77
2022-09-04T14:02:15.425Z,49.80
2022-09-04T14:04:44.033Z,48.30
2022-09-04T14:07:14.586Z,48.84
2022-09-04T14:09:43.418Z,49.36
2022-09-04T14:12:18.621Z,46.54
2022-09-04T14:15:05.577Z,45.72
2022-09-04T14:17:36.707Z,45.68
2022-09-04T14:20:05.081Z,45.30
2022-09-04T14:22:38.137Z,47.40
2022-09-04T14:25:11.728Z,46.87
2022-09-04T14:27:43.438Z,43.58
2022-09-04T14:30:14.782Z,45.27
2022-09-04T14:32:47.348Z,46.71
2022-09-04T14:35:19.198Z,46.85
2022-09-04T14:38:01.822Z,46.44
2022-09-04T14:40:31.432Z,45.58
2022-09-04T14:43:02.975Z,46.44
2022-09-04T14:45:35.389Z,45.09
2022-09-04T14:48:05.366Z,46.63
2022-09-04T14:50:34.874Z,45.88
2022-09-04T14:53:03.730Z,46.21
2022-09-04T14:55:38.161Z,47.53
2022-09-04T14:58:06.884Z,48.92
2022-09-04T15:00:36.558Z,48.58
2022-09-04T15:03:07.688Z,48.44
2022-09-04T15:05:35.896Z,49.31
2022-09-04T15:08:05.707Z,48.63
2022-09-04T15:10:39.005Z,48.97
2022-09-04T15:13:35.352Z,49.14
2022-09-04T15:16:09.419Z,48.03
2022-09-04T15:18:43.877Z,46.21
2022-09-04T15:21:12.426Z,46.96
2022-09-04T15:23:42.164Z,47.99
2022-09-04T15:26:10.944Z,46.96
2022-09-04T15:28:40.411Z,46.93
2022-09-04T15:31:15.631Z,47.68
2022-09-04T15:33:46.131Z,48.93
2022-09-04T15:36:15.797Z,49.00
2022-09-04T15:38:48.747Z,48.17
2022-09-04T15:41:18.929Z,48.31
2022-09-04T15:43:48.918Z,48.99
2022-09-04T15:46:23.238Z,48.51
2022-09-04T15:48:55.451Z,48.56
2022-09-04T15:51:28.897Z,48.51
2022-09-04T15:54:15.546Z,48.64
2022-09-04T15:56:46.057Z,48.35
2022-09-04T15:59:16.142Z,48.02
2022-09-04T16:01:45.935Z,46.93
2022-09-04T16:04:17.547Z,46.94
2022-09-04T16:06:45.943Z,46.59
2022-09-04T16:09:20.971Z,47.00
2022-09-04T16:12:01.344Z,47.47
2022-09-04T16:14:29.498Z,47.82
2022-09-04T16:17:01.495Z,48.14
2022-09-04T16:19:35.770Z,48.24
2022-09-04T16:22:06.909Z,48.88
2022-09-04T16:24:45.300Z,48.69
2022-09-04T16:27:13.813Z,48.94
2022-09-04T16:29:45.486Z,48.37
2022-09-04T16:32:13.185Z,49.26
2022-09-04T16:34:46.842Z,49.60
2022-09-04T16:37:16.886Z,48.94
2022-09-04T16:39:47.694Z,49.33
2022-09-04T16:42:18.181Z,50.56
2022-09-04T16:44:46.507Z,50.73
2022-09-04T16:47:16.208Z,50.84
2022-09-04T16:49:47.167Z,51.05
2022-09-04T16:52:28.002Z,50.87
2022-09-04T16:54:56.458Z,51.32
2022-09-04T16:57:26.700Z,50.84
2022-09-04T16:59:57.367Z,50.65
2022-09-04T17:02:35.722Z,51.27
2022-09-04T17:05:17.863Z,51.44
2022-09-04T17:07:48.890Z,51.47
2022-09-04T17:10:22.657Z,52.20
2022-09-04T17:12:52.641Z,52.21
2022-09-04T17:15:26.992Z,52.27
2022-09-04T17:17:58.836Z,53.03
2022-09-04T17:20:55.039Z,52.49
2022-09-04T17:29:03.573Z,52.40
2022-09-04T17:29:08.418Z,52.41
2022-09-04T17:29:29.638Z,52.75
2022-09-04T17:31:53.052Z,52.55
2022-09-04T17:40:32.781Z,52.89
2022-09-04T17:40:50.972Z,53.02
2022-09-04T17:40:53.992Z,53.14
2022-09-04T17:43:22.287Z,53.67
2022-09-04T17:45:54.920Z,53.71
2022-09-04T17:48:24.198Z,54.16
2022-09-04T17:50:55.541Z,54.99
2022-09-04T17:53:33.579Z,54.73
2022-09-04T17:56:06.759Z,54.77
2022-09-04T17:58:57.702Z,54.38
2022-09-04T18:01:27.283Z,54.20
2022-09-04T18:04:21.919Z,55.16
2022-09-04T18:06:56.655Z,55.13
2022-09-04T18:09:26.529Z,54.70
2022-09-04T18:12:00.861Z,55.58
2022-09-04T18:14:31.915Z,55.29
2022-09-04T18:17:12.787Z,56.00
2022-09-04T18:19:43.043Z,55.34
2022-09-04T18:22:32.079Z,56.38
2022-09-04T18:25:16.611Z,56.68
2022-09-04T18:28:06.532Z,57.94
2022-09-04T18:37:10.334Z,58.10
2022-09-04T18:37:21.166Z,59.53
2022-09-04T18:37:27.096Z,59.58
2022-09-04T18:39:22.894Z,60.27
2022-09-04T18:46:16.412Z,60.34
2022-09-04T18:50:25.411Z,60.79
2022-09-04T18:50:36.649Z,61.37
2022-09-04T18:51:03.068Z,62.54
2022-09-04T18:53:20.093Z,60.87
2022-09-04T18:55:48.356Z,60.84
2022-09-04T18:58:51.973Z,61.13
2022-09-04T19:01:26.726Z,60.80
2022-09-04T19:03:56.917Z,60.25
2022-09-04T19:06:32.492Z,61.13
2022-09-04T19:09:03.179Z,61.01
2022-09-04T19:11:31.797Z,62.65
2022-09-04T19:14:10.293Z,62.04
2022-09-04T19:16:41.893Z,62.92
2022-09-04T19:19:11.162Z,62.90
2022-09-04T19:21:57.728Z,62.96
2022-09-04T19:24:28.683Z,63.22
2022-09-04T19:27:26.503Z,63.87
2022-09-04T19:30:03.204Z,64.22
2022-09-04T19:32:58.052Z,65.15
2022-09-04T19:35:30.096Z,64.88
2022-09-04T19:40:15.205Z,64.53
2022-09-04T19:46:07.453Z,64.94
2022-09-04T19:46:07.544Z,65.07
2022-09-04T19:46:37.030Z,65.38
2022-09-04T19:50:12.971Z,65.97
2022-09-04T19:53:32.456Z,66.44
2022-09-04T19:55:24.849Z,66.36
2022-09-04T19:57:48.604Z,65.89
2022-09-04T20:00:38.325Z,66.32
2022-09-04T20:03:08.822Z,65.89
2022-09-04T20:05:40.914Z,65.71
2022-09-04T20:08:11.109Z,65.30
2022-09-04T20:10:39.823Z,65.81
2022-09-04T20:13:15.275Z,66.20
2022-09-04T20:15:47.504Z,66.21
2022-09-04T20:18:19.229Z,66.77
2022-09-04T20:20:49.451Z,66.84
2022-09-04T20:23:34.904Z,66.77
2022-09-04T20:26:07.641Z,68.52
2022-09-04T20:28:37.490Z,68.71
2022-09-04T20:31:36.224Z,68.07
2022-09-04T20:34:11.834Z,68.15
2022-09-04T20:36:49.035Z,68.58
2022-09-04T20:39:22.352Z,68.31
2022-09-04T20:41:55.705Z,67.84
2022-09-04T20:44:24.598Z,66.72
2022-09-04T20:52:40.855Z,67.86
2022-09-04T20:52:54.577Z,68.27
2022-09-04T20:53:07.874Z,67.04
2022-09-04T20:55:46.359Z,67.92
2022-09-04T21:03:12.661Z,67.75
2022-09-04T21:03:24.101Z,69.02
2022-09-04T21:04:04.930Z,69.64
2022-09-04T21:06:34.741Z,67.93
2022-09-04T21:09:25.788Z,67.50
2022-09-04T21:11:55.596Z,68.10
2022-09-04T21:14:26.824Z,67.72
2022-09-04T21:17:06.828Z,67.59
2022-09-04T21:20:12.285Z,67.86
2022-09-04T21:22:44.324Z,68.56
2022-09-04T21:25:22.794Z,71.12
2022-09-04T21:28:02.260Z,70.25
2022-09-04T21:30:42.018Z,71.91
2022-09-04T21:33:26.881Z,70.97
2022-09-04T21:36:00.346Z,70.88
2022-09-04T21:38:52.137Z,71.20
2022-09-04T21:41:29.198Z,70.39
2022-09-04T21:44:08.447Z,70.15
2022-09-04T21:46:46.736Z,69.18
2022-09-04T21:49:27.196Z,69.48
2022-09-04T21:51:59.094Z,70.06
2022-09-04T21:56:46.209Z,70.54
2022-09-04T22:02:25.240Z,71.42
2022-09-04T22:02:41.705Z,70.92
2022-09-04T22:03:27.952Z,69.76
2022-09-04T22:06:03.802Z,69.48
2022-09-04T22:13:27.410Z,70.66
2022-09-04T22:13:30.493Z,70.40
2022-09-04T22:14:26.178Z,71.09
2022-09-04T22:17:15.411Z,70.88
2022-09-04T22:19:49.009Z,71.20
2022-09-04T22:22:28.572Z,70.40
2022-09-04T22:25:13.411Z,71.67
2022-09-04T22:28:08.386Z,71.62
2022-09-04T22:30:41.271Z,71.69
2022-09-04T22:33:27.158Z,71.35
2022-09-04T22:36:05.578Z,71.09
2022-09-04T22:38:35.532Z,71.54
2022-09-04T22:41:07.003Z,73.61
2022-09-04T22:43:47.267Z,74.14
2022-09-04T22:46:36.337Z,74.82
2022-09-04T22:49:13.522Z,74.64
2022-09-04T22:52:09.990Z,75.14
2022-09-04T22:54:44.678Z,74.51
2022-09-04T22:57:13.337Z,73.31
2022-09-04T22:59:56.758Z,72.01
2022-09-04T23:03:07.157Z,74.16
2022-09-04T23:05:49.916Z,73.34
2022-09-04T23:13:47.201Z,73.72
2022-09-04T23:13:58.087Z,73.43
2022-09-04T23:14:21.777Z,73.66
2022-09-04T23:17:19.670Z,74.12
2022-09-04T23:24:52.148Z,74.67
2022-09-04T23:26:45.674Z,75.21
2022-09-04T23:26:47.729Z,74.89
2022-09-04T23:29:00.479Z,74.40
2022-09-04T23:31:33.623Z,74.96
2022-09-04T23:34:15.204Z,74.81
2022-09-04T23:36:53.010Z,75.44
2022-09-04T23:39:27.184Z,76.15
2022-09-04T23:41:58.171Z,75.34
2022-09-04T23:44:37.522Z,76.00
2022-09-04T23:47:48.258Z,75.57
2022-09-04T23:50:13.485Z,75.78
2022-09-04T23:52:48.529Z,75.58
2022-09-04T23:55:20.524Z,75.54
2022-09-04T23:57:51.306Z,76.79
